createdAt,value
2022-11-09T00:01:50.089Z,22.83
2022-11-09T00:04:18.321Z,20.93
2022-11-09T00:06:46.635Z,21.27
2022-11-09T00:09:14.970Z,24.33
2022-11-09T00:11:44.612Z,21.13
2022-11-09T00:14:15.651Z,20.03
2022-11-09T00:16:43.933Z,24.40
2022-11-09T00:19:18.204Z,22.80
2022-11-09T00:22:12.343Z,21.70
2022-11-09T00:24:40.563Z,20.07
2022-11-09T00:27:12.891Z,18.63
2022-11-09T00:29:44.838Z,20.70
2022-11-09T00:32:13.144Z,20.13
2022-11-09T00:34:41.393Z,22.37
2022-11-09T00:37:14.676Z,25.27
2022-11-09T00:39:43.936Z,20.37
2022-11-09T00:42:13.511Z,18.90
2022-11-09T00:44:41.770Z,19.63
2022-11-09T00:47:09.980Z,21.70
2022-11-09T00:49:38.204Z,21.53
2022-11-09T00:52:06.616Z,20.17
2022-11-09T00:54:34.878Z,22.80
2022-11-09T00:57:03.114Z,22.60
2022-11-09T00:59:32.700Z,22.00
2022-11-09T01:02:00.886Z,22.77
2022-11-09T01:04:29.136Z,23.03
2022-11-09T01:06:57.571Z,22.00
2022-11-09T01:09:25.918Z,23.73
2022-11-09T01:11:54.388Z,24.47
2022-11-09T01:14:22.869Z,21.53
2022-11-09T01:16:52.467Z,25.00
2022-11-09T01:19:20.731Z,24.00
2022-11-09T01:21:48.951Z,24.00
2022-11-09T01:24:17.140Z,22.27
2022-11-09T01:26:45.415Z,22.57
2022-11-09T01:29:13.620Z,21.67
2022-11-09T01:31:41.839Z,21.33
2022-11-09T01:34:36.764Z,22.83
2022-11-09T01:37:20.065Z,24.17
2022-11-09T01:39:48.272Z,24.03
2022-11-09T01:42:16.784Z,21.53
2022-11-09T01:44:45.185Z,19.50
2022-11-09T01:47:18.236Z,22.67
2022-11-09T01:49:53.098Z,23.43
2022-11-09T01:52:25.135Z,24.50
2022-11-09T01:54:58.583Z,24.97
2022-11-09T01:57:29.229Z,23.67
2022-11-09T02:00:02.852Z,24.07
2022-11-09T02:02:31.087Z,24.87
2022-11-09T02:05:06.710Z,24.50
2022-11-09T02:07:36.423Z,25.10
2022-11-09T02:10:08.654Z,22.77
2022-11-09T02:12:37.546Z,25.13
2022-11-09T02:15:10.604Z,22.87
2022-11-09T02:17:40.306Z,23.07
2022-11-09T02:20:12.072Z,23.13
2022-11-09T02:22:41.561Z,22.37
2022-11-09T02:25:11.070Z,23.43
2022-11-09T02:30:23.634Z,22.07
2022-11-09T02:32:51.819Z,23.03
2022-11-09T02:35:21.513Z,24.03
2022-11-09T02:37:50.658Z,25.23
2022-11-09T02:40:23.620Z,26.07
2022-11-09T02:42:51.885Z,26.17
2022-11-09T02:45:20.268Z,25.50
2022-11-09T02:47:48.499Z,26.63
2022-11-09T02:50:17.018Z,25.23
2022-11-09T02:52:46.681Z,25.90
2022-11-09T02:55:15.001Z,25.47
2022-11-09T02:57:43.270Z,25.43
2022-11-09T03:00:12.442Z,24.60
2022-11-09T03:02:40.964Z,26.27
2022-11-09T03:05:09.993Z,23.97
2022-11-09T03:07:38.256Z,25.37
2022-11-09T03:10:08.759Z,22.80
2022-11-09T03:12:36.984Z,28.07
2022-11-09T03:15:08.561Z,26.40
2022-11-09T03:17:37.542Z,28.80
2022-11-09T03:20:06.464Z,23.93
2022-11-09T03:22:34.746Z,24.73
2022-11-09T03:25:02.972Z,26.20
2022-11-09T03:27:32.622Z,25.30
2022-11-09T03:30:00.833Z,27.70
2022-11-09T03:32:29.102Z,25.17
2022-11-09T03:34:57.324Z,25.93
2022-11-09T03:37:25.623Z,27.37
2022-11-09T03:39:53.894Z,24.90
2022-11-09T03:42:22.111Z,29.13
2022-11-09T03:44:51.753Z,26.43
2022-11-09T03:47:19.925Z,26.70
2022-11-09T03:49:48.125Z,24.87
2022-11-09T03:52:16.347Z,27.27
2022-11-09T03:54:44.600Z,28.73
2022-11-09T03:57:12.846Z,28.20
2022-11-09T04:00:08.952Z,28.67
2022-11-09T04:02:42.157Z,26.30
2022-11-09T04:05:35.537Z,23.97
2022-11-09T04:08:03.775Z,26.63
2022-11-09T04:10:32.546Z,23.63
2022-11-09T04:13:01.998Z,26.20
2022-11-09T04:15:56.705Z,29.20
2022-11-09T04:18:24.977Z,27.30
2022-11-09T04:20:53.197Z,26.33
2022-11-09T04:23:21.710Z,26.43
2022-11-09T04:25:50.215Z,28.40
2022-11-09T04:28:18.474Z,30.00
2022-11-09T04:30:46.779Z,25.70
2022-11-09T04:33:16.501Z,29.00
2022-11-09T04:35:44.876Z,27.97
2022-11-09T04:38:14.730Z,25.83
2022-11-09T04:40:43.142Z,26.20
2022-11-09T04:43:16.016Z,26.87
2022-11-09T04:45:44.509Z,28.53
2022-11-09T04:48:13.306Z,26.80
2022-11-09T04:50:42.957Z,29.23
2022-11-09T04:53:13.230Z,25.87
2022-11-09T04:55:42.447Z,28.90
2022-11-09T04:58:10.794Z,31.27
2022-11-09T05:00:39.488Z,30.97
2022-11-09T05:03:08.681Z,29.83
2022-11-09T05:05:40.087Z,28.27
2022-11-09T05:08:11.364Z,32.03
2022-11-09T05:10:39.783Z,27.30
2022-11-09T05:13:33.631Z,31.27
2022-11-09T05:16:02.554Z,28.40
2022-11-09T05:18:30.760Z,27.57
2022-11-09T05:21:00.254Z,29.40
2022-11-09T05:23:48.884Z,27.70
2022-11-09T05:26:17.221Z,29.00
2022-11-09T05:28:45.871Z,29.13
2022-11-09T05:31:14.172Z,32.00
2022-11-09T05:33:42.382Z,27.30
2022-11-09T05:36:10.774Z,29.00
2022-11-09T05:38:40.430Z,31.60
2022-11-09T05:41:08.941Z,33.03
2022-11-09T05:43:37.161Z,29.30
2022-11-09T05:46:06.727Z,31.60
2022-11-09T05:48:35.131Z,29.43
2022-11-09T05:51:04.306Z,30.47
2022-11-09T05:53:32.800Z,29.70
2022-11-09T05:56:05.679Z,32.20
2022-11-09T05:58:36.406Z,28.23
2022-11-09T06:01:06.241Z,29.23
2022-11-09T06:03:34.499Z,31.47
2022-11-09T06:06:08.032Z,30.53
2022-11-09T06:08:36.846Z,29.53
2022-11-09T06:11:08.349Z,31.80
2022-11-09T06:13:36.607Z,28.23
2022-11-09T06:16:06.358Z,28.87
2022-11-09T06:18:36.398Z,32.63
2022-11-09T06:21:06.475Z,34.77
2022-11-09T06:23:34.712Z,33.13
2022-11-09T06:26:06.451Z,33.23
2022-11-09T06:28:36.156Z,30.30
2022-11-09T06:31:06.211Z,33.50
2022-11-09T06:33:36.017Z,37.27
2022-11-09T06:36:06.647Z,36.00
2022-11-09T06:38:35.055Z,34.00
2022-11-09T06:41:03.492Z,35.47
2022-11-09T06:43:31.713Z,32.30
2022-11-09T06:46:04.432Z,35.13
2022-11-09T06:48:32.713Z,34.53
2022-11-09T06:51:01.767Z,34.47
2022-11-09T06:53:30.882Z,35.40
2022-11-09T06:56:00.068Z,28.77
2022-11-09T06:58:30.272Z,41.00
2022-11-09T07:00:58.751Z,36.27
2022-11-09T07:03:28.386Z,32.70
2022-11-09T07:05:56.876Z,33.37
2022-11-09T07:08:25.106Z,40.80
2022-11-09T07:10:53.533Z,38.63
2022-11-09T07:13:22.002Z,39.53
2022-11-09T07:15:55.562Z,39.43
2022-11-09T07:18:24.092Z,48.47
2022-11-09T07:21:12.846Z,41.23
2022-11-09T07:23:42.990Z,38.80
2022-11-09T07:26:11.276Z,42.83
2022-11-09T07:29:04.962Z,34.97
2022-11-09T07:31:33.171Z,36.43
2022-11-09T07:34:04.793Z,37.53
2022-11-09T07:36:36.739Z,41.33
2022-11-09T07:39:23.842Z,40.83
2022-11-09T07:41:52.287Z,40.87
2022-11-09T07:44:20.509Z,41.97
2022-11-09T07:46:49.800Z,35.80
2022-11-09T07:49:19.093Z,43.70
2022-11-09T07:51:48.714Z,40.60
2022-11-09T07:54:17.002Z,36.23
2022-11-09T07:56:45.240Z,40.20
2022-11-09T07:59:13.565Z,35.47
2022-11-09T08:01:41.858Z,34.47
2022-11-09T08:04:10.849Z,34.10
2022-11-09T08:06:39.277Z,36.67
2022-11-09T08:09:09.010Z,36.20
2022-11-09T08:11:37.190Z,33.27
2022-11-09T08:14:05.434Z,37.77
2022-11-09T08:16:37.770Z,35.23
2022-11-09T08:19:08.963Z,34.10
2022-11-09T08:21:37.387Z,29.30
2022-11-09T08:24:06.779Z,30.17
2022-11-09T08:26:36.337Z,30.47
2022-11-09T08:29:04.624Z,30.63
2022-11-09T08:31:32.856Z,28.23
2022-11-09T08:34:01.061Z,32.83
2022-11-09T08:36:29.932Z,30.10
2022-11-09T08:38:59.313Z,28.37
2022-11-09T08:41:27.516Z,28.97
2022-11-09T08:43:57.135Z,29.53
2022-11-09T08:46:25.379Z,33.50
2022-11-09T08:48:53.646Z,33.13
2022-11-09T08:51:21.882Z,30.20
2022-11-09T08:53:50.778Z,30.30
2022-11-09T08:56:19.450Z,27.30
2022-11-09T08:58:47.965Z,32.47
2022-11-09T09:01:17.854Z,30.33
2022-11-09T09:03:46.787Z,33.33
2022-11-09T09:06:15.042Z,30.77
2022-11-09T09:08:43.239Z,29.77
2022-11-09T09:11:11.448Z,36.17
2022-11-09T09:13:43.311Z,27.57
2022-11-09T09:16:14.009Z,31.63
2022-11-09T09:18:44.310Z,26.00
2022-11-09T09:21:13.533Z,27.30
2022-11-09T09:23:41.871Z,30.73
2022-11-09T09:26:10.140Z,29.13
2022-11-09T09:28:39.069Z,28.07
2022-11-09T09:31:07.671Z,32.43
2022-11-09T09:33:36.146Z,28.10
2022-11-09T09:36:06.578Z,28.33
2022-11-09T09:38:34.884Z,32.37
2022-11-09T09:41:05.113Z,30.53
2022-11-09T09:43:42.585Z,27.80
2022-11-09T09:46:19.876Z,30.17
2022-11-09T09:48:52.744Z,30.67
2022-11-09T09:51:26.386Z,28.03
2022-11-09T09:54:25.240Z,29.83
2022-11-09T09:56:57.142Z,27.87
2022-11-09T09:59:35.009Z,29.87
2022-11-09T10:02:03.458Z,27.67
2022-11-09T10:04:37.387Z,27.30
2022-11-09T10:07:14.664Z,28.20
2022-11-09T10:10:05.170Z,30.20
2022-11-09T10:12:44.789Z,28.57
2022-11-09T10:15:28.113Z,30.40
2022-11-09T10:18:31.553Z,28.47
2022-11-09T10:21:12.560Z,26.43
2022-11-09T10:23:58.544Z,26.33
2022-11-09T10:26:39.972Z,28.17
2022-11-09T10:29:21.442Z,27.13
2022-11-09T10:31:52.285Z,29.00
2022-11-09T10:34:22.713Z,28.80
2022-11-09T10:36:59.834Z,28.43
2022-11-09T10:39:40.184Z,28.73
2022-11-09T10:42:11.512Z,27.87
2022-11-09T10:44:39.877Z,27.50
2022-11-09T10:47:11.861Z,28.73
2022-11-09T10:49:41.308Z,27.97
2022-11-09T10:52:32.449Z,27.37
2022-11-09T10:55:25.398Z,29.13
2022-11-09T10:57:59.970Z,27.87
2022-11-09T11:00:57.948Z,29.13
2022-11-09T11:03:26.548Z,29.50
2022-11-09T11:05:59.571Z,28.67
2022-11-09T11:08:32.348Z,28.60
2022-11-09T11:11:33.845Z,29.77
2022-11-09T11:14:17.188Z,29.97
2022-11-09T11:16:50.778Z,31.33
2022-11-09T11:19:34.915Z,24.83
2022-11-09T11:22:27.528Z,26.07
2022-11-09T11:24:58.125Z,27.93
2022-11-09T11:27:38.196Z,27.30
2022-11-09T11:30:12.761Z,28.43
2022-11-09T11:32:47.072Z,26.73
2022-11-09T11:35:31.541Z,31.03
2022-11-09T11:38:11.468Z,31.07
2022-11-09T11:40:46.143Z,28.73
2022-11-09T11:43:35.449Z,29.00
2022-11-09T11:46:12.443Z,34.37
2022-11-09T11:49:05.500Z,22.87
2022-11-09T11:51:41.416Z,29.53
2022-11-09T11:54:18.672Z,28.20
2022-11-09T11:56:51.105Z,26.97
2022-11-09T11:59:48.443Z,35.27
2022-11-09T12:02:33.887Z,31.00
2022-11-09T12:05:26.105Z,32.40
2022-11-09T12:07:59.810Z,29.43
2022-11-09T12:10:39.884Z,24.50
2022-11-09T12:13:18.554Z,26.47
2022-11-09T12:15:57.913Z,29.00
2022-11-09T12:18:40.374Z,27.60
2022-11-09T12:21:17.036Z,28.60
2022-11-09T12:24:06.798Z,30.27
2022-11-09T12:27:10.989Z,30.27
2022-11-09T12:29:49.971Z,37.33
2022-11-09T12:32:25.796Z,27.43
2022-11-09T12:35:12.935Z,27.27
2022-11-09T12:37:47.135Z,29.23
2022-11-09T12:40:24.027Z,29.50
2022-11-09T12:42:57.975Z,26.47
2022-11-09T12:45:52.421Z,28.17
2022-11-09T12:48:26.727Z,26.93
2022-11-09T12:50:55.503Z,34.13
2022-11-09T12:53:26.593Z,24.20
2022-11-09T12:55:59.180Z,25.63
2022-11-09T12:58:30.280Z,25.73
2022-11-09T13:00:59.946Z,33.90
2022-11-09T13:03:32.097Z,26.40
2022-11-09T13:06:18.431Z,25.33
2022-11-09T13:09:04.178Z,29.37
2022-11-09T13:11:38.938Z,29.03
2022-11-09T13:14:39.295Z,27.50
2022-11-09T13:17:44.527Z,30.50
2022-11-09T13:20:55.438Z,28.97
2022-11-09T13:26:44.515Z,25.13
2022-11-09T13:29:25.074Z,25.07
2022-11-09T13:32:25.598Z,25.03
2022-11-09T13:35:00.106Z,32.47
2022-11-09T13:37:49.395Z,26.90
2022-11-09T13:41:04.448Z,25.80
2022-11-09T13:43:36.160Z,31.13
2022-11-09T13:46:06.804Z,28.10
2022-11-09T13:48:40.298Z,25.13
2022-11-09T13:51:11.519Z,27.17
2022-11-09T13:53:58.986Z,27.00
2022-11-09T13:56:33.196Z,29.20
2022-11-09T13:59:11.039Z,25.80
2022-11-09T14:01:49.109Z,24.53
2022-11-09T14:04:45.009Z,23.40
2022-11-09T14:07:19.178Z,22.40
2022-11-09T14:09:59.190Z,25.23
2022-11-09T14:12:43.092Z,31.27
2022-11-09T14:15:20.900Z,24.43
2022-11-09T14:17:59.649Z,26.53
2022-11-09T14:20:38.078Z,23.73
2022-11-09T14:23:17.029Z,21.70
2022-11-09T14:25:49.246Z,22.53
2022-11-09T14:28:23.528Z,24.87
2022-11-09T14:30:51.803Z,21.33
2022-11-09T14:33:23.554Z,21.83
2022-11-09T14:35:53.675Z,30.33
2022-11-09T14:38:25.125Z,56.97
2022-11-09T14:40:55.415Z,41.77
2022-11-09T14:43:29.401Z,44.43
2022-11-09T14:46:01.096Z,56.63
2022-11-09T14:48:30.901Z,96.70
2022-11-09T14:51:01.822Z,91.53
2022-11-09T14:53:33.105Z,64.57
2022-11-09T14:56:05.078Z,43.20
2022-11-09T14:58:36.399Z,38.43
2022-11-09T15:01:09.806Z,37.17
2022-11-09T15:03:38.116Z,31.03
2022-11-09T15:06:31.212Z,31.77
2022-11-09T15:09:02.914Z,29.07
2022-11-09T15:11:35.442Z,29.57
2022-11-09T15:14:16.374Z,31.67
2022-11-09T15:16:46.799Z,30.23
2022-11-09T15:19:29.519Z,31.97
2022-11-09T15:21:57.851Z,36.60
2022-11-09T15:24:28.392Z,37.53
2022-11-09T15:26:58.828Z,31.37
2022-11-09T15:29:40.027Z,32.10
2022-11-09T15:32:17.243Z,31.80
2022-11-09T15:34:55.374Z,30.43
2022-11-09T15:37:28.229Z,34.70
2022-11-09T15:39:57.024Z,36.67
2022-11-09T15:42:32.868Z,39.33
2022-11-09T15:45:01.365Z,36.27
2022-11-09T15:47:33.518Z,34.10
2022-11-09T15:50:07.862Z,35.23
2022-11-09T15:52:36.085Z,34.13
2022-11-09T15:55:04.429Z,38.03
2022-11-09T15:57:34.037Z,34.47
2022-11-09T16:00:09.496Z,36.07
2022-11-09T16:02:40.877Z,37.50
2022-11-09T16:05:09.704Z,43.20
2022-11-09T16:07:37.947Z,41.97
2022-11-09T16:10:06.853Z,38.90
2022-11-09T16:12:58.255Z,39.60
2022-11-09T16:15:27.156Z,37.23
2022-11-09T16:17:55.406Z,35.13
2022-11-09T16:20:23.800Z,40.03
2022-11-09T16:22:52.017Z,35.33
2022-11-09T16:25:20.965Z,37.97
2022-11-09T16:27:50.943Z,36.40
2022-11-09T16:30:46.536Z,32.63
2022-11-09T16:33:15.213Z,39.50
2022-11-09T16:35:43.468Z,37.50
2022-11-09T16:38:11.777Z,38.30
2022-11-09T16:40:40.143Z,38.63
2022-11-09T16:43:08.516Z,39.77
2022-11-09T16:45:36.811Z,41.27
2022-11-09T16:48:12.832Z,39.93
2022-11-09T16:50:41.104Z,36.93
2022-11-09T16:53:09.290Z,40.53
2022-11-09T16:55:37.984Z,37.47
2022-11-09T16:58:06.168Z,37.43
2022-11-09T17:03:24.105Z,55.40
2022-11-09T17:05:52.310Z,36.47
2022-11-09T17:08:20.750Z,38.87
2022-11-09T17:10:49.120Z,41.73
2022-11-09T17:13:17.552Z,37.73
2022-11-09T17:15:47.760Z,42.67
2022-11-09T17:18:16.776Z,38.47
2022-11-09T17:20:47.969Z,41.67
2022-11-09T17:23:18.774Z,36.80
2022-11-09T17:25:56.363Z,42.60
2022-11-09T17:28:50.146Z,43.20
2022-11-09T17:31:20.670Z,40.87
2022-11-09T17:33:48.923Z,42.57
2022-11-09T17:36:29.918Z,39.23
2022-11-09T17:39:08.058Z,40.03
2022-11-09T17:41:42.324Z,39.70
2022-11-09T17:44:11.023Z,40.37
2022-11-09T17:46:39.249Z,40.13
2022-11-09T17:49:10.289Z,40.80
2022-11-09T17:51:40.186Z,37.03
2022-11-09T17:54:08.378Z,42.73
2022-11-09T17:56:36.619Z,40.17
2022-11-09T17:59:06.232Z,39.70
2022-11-09T18:01:41.484Z,42.00
2022-11-09T18:04:11.819Z,54.73
2022-11-09T18:06:41.800Z,60.37
2022-11-09T18:09:41.299Z,48.03
2022-11-09T18:11:59.272Z,42.57
2022-11-09T18:14:27.463Z,41.80
2022-11-09T18:16:55.673Z,42.60
2022-11-09T18:19:23.910Z,43.23
2022-11-09T18:21:53.551Z,43.40
2022-11-09T18:24:21.752Z,41.40
2022-11-09T18:26:49.995Z,45.90
2022-11-09T18:29:18.204Z,38.37
2022-11-09T18:31:46.484Z,44.17
2022-11-09T18:34:14.814Z,42.60
2022-11-09T18:36:42.990Z,42.83
2022-11-09T18:39:12.587Z,43.50
2022-11-09T18:41:40.795Z,43.80
2022-11-09T18:44:09.514Z,42.90
2022-11-09T18:46:37.766Z,47.97
2022-11-09T18:49:11.514Z,45.13
2022-11-09T18:51:42.370Z,39.23
2022-11-09T18:54:11.969Z,38.47
2022-11-09T18:56:40.229Z,40.87
2022-11-09T18:59:08.472Z,37.03
2022-11-09T19:02:02.133Z,41.70
2022-11-09T19:04:30.364Z,40.63
2022-11-09T19:06:58.586Z,41.57
2022-11-09T19:09:35.040Z,42.13
2022-11-09T19:12:05.996Z,41.63
2022-11-09T19:14:40.559Z,38.77
2022-11-09T19:17:13.041Z,41.23
2022-11-09T19:19:42.266Z,39.03
2022-11-09T19:22:16.907Z,40.90
2022-11-09T19:24:47.024Z,45.97
2022-11-09T19:27:15.257Z,40.37
2022-11-09T19:29:43.441Z,45.67
2022-11-09T19:32:11.632Z,46.53
2022-11-09T19:34:42.730Z,39.27
2022-11-09T19:37:11.138Z,43.70
2022-11-09T19:40:06.226Z,39.53
2022-11-09T19:42:34.462Z,42.93
2022-11-09T19:45:12.744Z,42.20
2022-11-09T19:47:41.230Z,42.30
2022-11-09T19:50:10.299Z,44.23
2022-11-09T19:52:38.877Z,48.63
2022-11-09T19:55:09.577Z,49.30
2022-11-09T19:57:37.805Z,48.23
2022-11-09T20:00:07.501Z,49.97
2022-11-09T20:02:35.706Z,44.97
2022-11-09T20:05:03.935Z,41.43
2022-11-09T20:07:33.250Z,45.20
2022-11-09T20:10:01.694Z,45.37
2022-11-09T20:12:57.154Z,46.70
2022-11-09T20:15:25.417Z,45.70
2022-11-09T20:18:20.626Z,48.83
2022-11-09T20:20:49.122Z,46.63
2022-11-09T20:23:21.575Z,43.47
2022-11-09T20:25:50.073Z,44.77
2022-11-09T20:28:20.018Z,45.00
2022-11-09T20:30:48.491Z,46.33
2022-11-09T20:33:17.133Z,48.70
2022-11-09T20:35:53.034Z,45.73
2022-11-09T20:38:21.526Z,43.67
2022-11-09T20:40:55.443Z,45.03
2022-11-09T20:43:25.930Z,50.93
2022-11-09T20:45:54.952Z,47.77
2022-11-09T20:48:47.106Z,48.77
2022-11-09T20:51:26.461Z,44.97
2022-11-09T20:53:54.717Z,45.77
2022-11-09T20:56:23.074Z,44.87
2022-11-09T20:58:52.640Z,46.97
2022-11-09T21:01:22.701Z,46.93
2022-11-09T21:03:52.257Z,45.87
2022-11-09T21:06:21.432Z,49.40
2022-11-09T21:08:52.294Z,52.13
2022-11-09T21:11:23.712Z,59.37
2022-11-09T21:13:54.684Z,51.17
2022-11-09T21:16:24.268Z,49.13
2022-11-09T21:18:52.517Z,49.93
2022-11-09T21:21:22.444Z,53.20
2022-11-09T21:24:08.552Z,54.30
2022-11-09T21:26:54.357Z,52.60
2022-11-09T21:29:43.227Z,58.83
2022-11-09T21:32:12.281Z,58.73
2022-11-09T21:34:40.784Z,56.13
2022-11-09T21:37:10.678Z,59.10
2022-11-09T21:39:38.901Z,54.83
2022-11-09T21:42:07.497Z,58.40
2022-11-09T21:44:37.250Z,61.67
2022-11-09T21:47:05.914Z,57.80
2022-11-09T21:49:34.604Z,50.43
2022-11-09T21:52:03.446Z,56.50
2022-11-09T21:54:31.762Z,59.30
2022-11-09T21:57:00.216Z,51.57
2022-11-09T21:59:28.468Z,50.57
2022-11-09T22:01:58.185Z,58.67
2022-11-09T22:04:50.997Z,55.20
2022-11-09T22:07:19.202Z,52.23
2022-11-09T22:10:09.276Z,56.07
2022-11-09T22:12:56.519Z,55.00
2022-11-09T22:15:41.911Z,50.83
2022-11-09T22:21:24.258Z,53.17
2022-11-09T22:23:52.610Z,62.70
2022-11-09T22:26:49.039Z,53.07
2022-11-09T22:29:17.226Z,57.50
2022-11-09T22:31:45.403Z,52.77
2022-11-09T22:34:15.452Z,52.87
2022-11-09T22:36:43.649Z,52.83
2022-11-09T22:39:11.878Z,56.30
2022-11-09T22:41:41.125Z,56.23
2022-11-09T22:44:09.476Z,55.00
2022-11-09T22:46:37.728Z,52.17
2022-11-09T22:49:06.729Z,55.60
2022-11-09T22:51:36.533Z,56.80
2022-11-09T22:54:05.157Z,53.57
2022-11-09T22:56:33.347Z,52.60
2022-11-09T22:59:01.624Z,53.83
2022-11-09T23:01:29.959Z,53.43
2022-11-09T23:03:58.307Z,51.60
2022-11-09T23:06:33.727Z,55.70
2022-11-09T23:09:03.489Z,52.70
2022-11-09T23:11:31.726Z,54.57
2022-11-09T23:14:00.019Z,51.43
2022-11-09T23:16:36.440Z,54.47
2022-11-09T23:19:03.831Z,51.17
2022-11-09T23:21:33.925Z,51.73
2022-11-09T23:24:05.958Z,51.90
2022-11-09T23:26:34.181Z,52.93
2022-11-09T23:29:27.104Z,51.70
2022-11-09T23:31:57.199Z,53.90
2022-11-09T23:34:25.448Z,53.67
2022-11-09T23:36:53.719Z,54.50
2022-11-09T23:39:23.364Z,52.73
2022-11-09T23:42:17.328Z,54.27
2022-11-09T23:44:45.548Z,53.23
2022-11-09T23:47:30.986Z,57.17
2022-11-09T23:49:59.252Z,50.13
2022-11-09T23:52:27.509Z,54.37
2022-11-09T23:54:57.133Z,48.23
2022-11-09T23:57:25.371Z,57.47
